sensor_id;sensor_type;location;lat;lon;timestamp;P1;durP1;ratioP1;P2;durP2;ratioP2
62588;SDS011;58504;48.770;9.148;2022-11-15T00:01:59;5.43;;;4.93;;
62588;SDS011;58504;48.770;9.148;2022-11-15T00:04:29;5.22;;;4.40;;
62588;SDS011;58504;48.770;9.148;2022-11-15T00:06:55;9.60;;;4.38;;
62588;SDS011;58504;48.770;9.148;2022-11-15T00:09:22;7.50;;;3.63;;
62588;SDS011;58504;48.770;9.148;2022-11-15T00:11:49;4.07;;;2.78;;
62588;SDS011;58504;48.770;9.148;2022-11-15T00:14:17;3.67;;;3.00;;
62588;SDS011;58504;48.770;9.148;2022-11-15T00:16:45;6.85;;;3.00;;
62588;SDS011;58504;48.770;9.148;2022-11-15T00:19:12;4.55;;;3.78;;
62588;SDS011;58504;48.770;9.148;2022-11-15T00:21:39;5.18;;;2.88;;
62588;SDS011;58504;48.770;9.148;2022-11-15T00:24:06;9.85;;;3.63;;
62588;SDS011;58504;48.770;9.148;2022-11-15T00:26:33;3.00;;;2.80;;
62588;SDS011;58504;48.770;9.148;2022-11-15T00:28:59;4.18;;;2.03;;
62588;SDS011;58504;48.770;9.148;2022-11-15T00:31:26;3.30;;;2.38;;
62588;SDS011;58504;48.770;9.148;2022-11-15T00:33:54;2.13;;;1.75;;
62588;SDS011;58504;48.770;9.148;2022-11-15T00:36:21;4.25;;;2.35;;
62588;SDS011;58504;48.770;9.148;2022-11-15T00:38:47;2.42;;;2.22;;
62588;SDS011;58504;48.770;9.148;2022-11-15T00:41:14;2.75;;;2.40;;
62588;SDS011;58504;48.770;9.148;2022-11-15T00:43:41;13.13;;;2.05;;
62588;SDS011;58504;48.770;9.148;2022-11-15T00:46:08;4.28;;;1.70;;
62588;SDS011;58504;48.770;9.148;2022-11-15T00:48:35;4.03;;;2.00;;
62588;SDS011;58504;48.770;9.148;2022-11-15T00:51:03;2.92;;;2.10;;
62588;SDS011;58504;48.770;9.148;2022-11-15T00:53:30;3.47;;;1.80;;
62588;SDS011;58504;48.770;9.148;2022-11-15T00:55:57;2.53;;;2.10;;
62588;SDS011;58504;48.770;9.148;2022-11-15T00:58:24;3.45;;;1.75;;
62588;SDS011;58504;48.770;9.148;2022-11-15T01:00:51;4.68;;;1.90;;
62588;SDS011;58504;48.770;9.148;2022-11-15T01:03:17;3.00;;;1.83;;
62588;SDS011;58504;48.770;9.148;2022-11-15T01:05:44;4.70;;;1.92;;
62588;SDS011;58504;48.770;9.148;2022-11-15T01:08:13;2.38;;;1.50;;
62588;SDS011;58504;48.770;9.148;2022-11-15T01:10:41;2.92;;;1.90;;
62588;SDS011;58504;48.770;9.148;2022-11-15T01:13:07;6.05;;;2.08;;
62588;SDS011;58504;48.770;9.148;2022-11-15T01:15:38;7.00;;;1.65;;
62588;SDS011;58504;48.770;9.148;2022-11-15T01:18:05;2.45;;;1.70;;
62588;SDS011;58504;48.770;9.148;2022-11-15T01:20:32;1.85;;;1.75;;
62588;SDS011;58504;48.770;9.148;2022-11-15T01:22:58;3.17;;;1.75;;
62588;SDS011;58504;48.770;9.148;2022-11-15T01:25:27;2.75;;;1.10;;
62588;SDS011;58504;48.770;9.148;2022-11-15T01:27:54;1.77;;;1.67;;
62588;SDS011;58504;48.770;9.148;2022-11-15T01:30:20;1.90;;;1.50;;
62588;SDS011;58504;48.770;9.148;2022-11-15T01:32:47;4.68;;;1.67;;
62588;SDS011;58504;48.770;9.148;2022-11-15T01:35:14;1.75;;;1.40;;
62588;SDS011;58504;48.770;9.148;2022-11-15T01:37:41;3.55;;;1.48;;
62588;SDS011;58504;48.770;9.148;2022-11-15T01:40:08;2.35;;;1.42;;
62588;SDS011;58504;48.770;9.148;2022-11-15T01:42:36;1.45;;;1.30;;
62588;SDS011;58504;48.770;9.148;2022-11-15T01:45:03;2.85;;;1.88;;
62588;SDS011;58504;48.770;9.148;2022-11-15T01:47:32;1.58;;;1.25;;
62588;SDS011;58504;48.770;9.148;2022-11-15T01:50:03;3.20;;;1.15;;
62588;SDS011;58504;48.770;9.148;2022-11-15T01:52:32;1.40;;;1.25;;
62588;SDS011;58504;48.770;9.148;2022-11-15T01:55:02;1.33;;;1.17;;
62588;SDS011;58504;48.770;9.148;2022-11-15T01:57:31;2.92;;;1.30;;
62588;SDS011;58504;48.770;9.148;2022-11-15T01:59:59;2.60;;;1.90;;
62588;SDS011;58504;48.770;9.148;2022-11-15T02:02:29;1.38;;;1.13;;
62588;SDS011;58504;48.770;9.148;2022-11-15T02:04:56;2.17;;;1.40;;
62588;SDS011;58504;48.770;9.148;2022-11-15T02:07:22;1.80;;;1.63;;
62588;SDS011;58504;48.770;9.148;2022-11-15T02:09:49;2.13;;;1.40;;
62588;SDS011;58504;48.770;9.148;2022-11-15T02:12:18;2.40;;;1.67;;
62588;SDS011;58504;48.770;9.148;2022-11-15T02:14:47;1.42;;;1.30;;
62588;SDS011;58504;48.770;9.148;2022-11-15T02:17:22;1.33;;;1.20;;
62588;SDS011;58504;48.770;9.148;2022-11-15T02:26:40;1.85;;;1.23;;
62588;SDS011;58504;48.770;9.148;2022-11-15T02:29:36;1.33;;;1.23;;
62588;SDS011;58504;48.770;9.148;2022-11-15T02:32:21;1.77;;;1.10;;
62588;SDS011;58504;48.770;9.148;2022-11-15T02:34:54;3.13;;;1.40;;
62588;SDS011;58504;48.770;9.148;2022-11-15T02:37:29;1.05;;;0.95;;
62588;SDS011;58504;48.770;9.148;2022-11-15T02:40:03;4.07;;;1.23;;
62588;SDS011;58504;48.770;9.148;2022-11-15T02:42:39;1.38;;;1.30;;
62588;SDS011;58504;48.770;9.148;2022-11-15T02:45:40;1.37;;;1.20;;
62588;SDS011;58504;48.770;9.148;2022-11-15T02:48:13;3.22;;;1.80;;
62588;SDS011;58504;48.770;9.148;2022-11-15T02:50:41;1.23;;;0.90;;
62588;SDS011;58504;48.770;9.148;2022-11-15T02:53:09;2.78;;;1.45;;
62588;SDS011;58504;48.770;9.148;2022-11-15T02:55:37;2.17;;;1.30;;
62588;SDS011;58504;48.770;9.148;2022-11-15T02:58:24;1.10;;;1.10;;
62588;SDS011;58504;48.770;9.148;2022-11-15T03:01:10;1.45;;;1.35;;
62588;SDS011;58504;48.770;9.148;2022-11-15T03:03:48;1.00;;;1.00;;
62588;SDS011;58504;48.770;9.148;2022-11-15T03:06:27;1.95;;;1.10;;
62588;SDS011;58504;48.770;9.148;2022-11-15T03:09:05;1.80;;;1.13;;
62588;SDS011;58504;48.770;9.148;2022-11-15T03:11:35;1.40;;;1.15;;
62588;SDS011;58504;48.770;9.148;2022-11-15T03:14:08;2.15;;;1.40;;
62588;SDS011;58504;48.770;9.148;2022-11-15T03:16:44;1.98;;;1.00;;
62588;SDS011;58504;48.770;9.148;2022-11-15T03:19:19;1.10;;;1.08;;
62588;SDS011;58504;48.770;9.148;2022-11-15T03:21:52;1.60;;;1.08;;
62588;SDS011;58504;48.770;9.148;2022-11-15T03:24:20;0.85;;;0.85;;
62588;SDS011;58504;48.770;9.148;2022-11-15T03:26:50;0.93;;;0.90;;
62588;SDS011;58504;48.770;9.148;2022-11-15T03:29:19;1.23;;;1.13;;
62588;SDS011;58504;48.770;9.148;2022-11-15T03:31:51;1.33;;;1.23;;
62588;SDS011;58504;48.770;9.148;2022-11-15T03:36:53;1.48;;;1.38;;
62588;SDS011;58504;48.770;9.148;2022-11-15T03:39:20;1.55;;;1.00;;
62588;SDS011;58504;48.770;9.148;2022-11-15T03:41:49;1.00;;;1.00;;
62588;SDS011;58504;48.770;9.148;2022-11-15T03:44:31;1.55;;;1.13;;
62588;SDS011;58504;48.770;9.148;2022-11-15T03:47:03;0.70;;;0.70;;
62588;SDS011;58504;48.770;9.148;2022-11-15T03:49:36;1.52;;;1.10;;
62588;SDS011;58504;48.770;9.148;2022-11-15T03:52:06;0.80;;;0.80;;
62588;SDS011;58504;48.770;9.148;2022-11-15T03:54:35;1.35;;;1.35;;
62588;SDS011;58504;48.770;9.148;2022-11-15T03:57:02;1.30;;;1.20;;
62588;SDS011;58504;48.770;9.148;2022-11-15T03:59:29;2.25;;;1.10;;
62588;SDS011;58504;48.770;9.148;2022-11-15T04:01:56;1.13;;;1.13;;
62588;SDS011;58504;48.770;9.148;2022-11-15T04:04:22;1.52;;;1.23;;
62588;SDS011;58504;48.770;9.148;2022-11-15T04:06:50;1.58;;;1.15;;
62588;SDS011;58504;48.770;9.148;2022-11-15T04:09:17;1.70;;;1.60;;
62588;SDS011;58504;48.770;9.148;2022-11-15T04:11:44;1.52;;;1.42;;
62588;SDS011;58504;48.770;9.148;2022-11-15T04:14:11;1.27;;;1.17;;
62588;SDS011;58504;48.770;9.148;2022-11-15T04:16:37;1.83;;;1.00;;
62588;SDS011;58504;48.770;9.148;2022-11-15T04:19:04;1.00;;;0.85;;
62588;SDS011;58504;48.770;9.148;2022-11-15T04:21:48;2.08;;;1.23;;
62588;SDS011;58504;48.770;9.148;2022-11-15T04:24:34;0.85;;;0.80;;
62588;SDS011;58504;48.770;9.148;2022-11-15T04:27:01;0.85;;;0.85;;
62588;SDS011;58504;48.770;9.148;2022-11-15T04:29:27;0.95;;;0.95;;
62588;SDS011;58504;48.770;9.148;2022-11-15T04:32:00;0.98;;;0.90;;
62588;SDS011;58504;48.770;9.148;2022-11-15T04:34:26;1.25;;;1.15;;
62588;SDS011;58504;48.770;9.148;2022-11-15T04:36:55;0.98;;;0.95;;
62588;SDS011;58504;48.770;9.148;2022-11-15T04:39:41;1.63;;;0.90;;
62588;SDS011;58504;48.770;9.148;2022-11-15T04:42:09;0.88;;;0.88;;
62588;SDS011;58504;48.770;9.148;2022-11-15T04:44:36;1.33;;;1.08;;
62588;SDS011;58504;48.770;9.148;2022-11-15T04:47:03;1.00;;;1.00;;
62588;SDS011;58504;48.770;9.148;2022-11-15T04:49:30;0.98;;;0.98;;
62588;SDS011;58504;48.770;9.148;2022-11-15T04:51:58;1.33;;;1.23;;
62588;SDS011;58504;48.770;9.148;2022-11-15T04:54:24;1.95;;;0.90;;
62588;SDS011;58504;48.770;9.148;2022-11-15T04:56:51;1.25;;;1.15;;
62588;SDS011;58504;48.770;9.148;2022-11-15T04:59:18;0.80;;;0.80;;
62588;SDS011;58504;48.770;9.148;2022-11-15T05:01:45;1.35;;;1.25;;
62588;SDS011;58504;48.770;9.148;2022-11-15T05:04:12;0.75;;;0.75;;
62588;SDS011;58504;48.770;9.148;2022-11-15T05:06:47;0.80;;;0.80;;
62588;SDS011;58504;48.770;9.148;2022-11-15T05:09:16;0.90;;;0.90;;
62588;SDS011;58504;48.770;9.148;2022-11-15T05:11:43;0.80;;;0.80;;
62588;SDS011;58504;48.770;9.148;2022-11-15T05:14:10;0.82;;;0.80;;
62588;SDS011;58504;48.770;9.148;2022-11-15T05:16:37;0.73;;;0.73;;
62588;SDS011;58504;48.770;9.148;2022-11-15T05:19:04;0.63;;;0.63;;
62588;SDS011;58504;48.770;9.148;2022-11-15T05:21:31;1.02;;;1.02;;
62588;SDS011;58504;48.770;9.148;2022-11-15T05:23:59;1.15;;;1.10;;
62588;SDS011;58504;48.770;9.148;2022-11-15T05:26:27;0.82;;;0.82;;
62588;SDS011;58504;48.770;9.148;2022-11-15T05:28:54;0.82;;;0.82;;
62588;SDS011;58504;48.770;9.148;2022-11-15T05:31:22;0.90;;;0.90;;
62588;SDS011;58504;48.770;9.148;2022-11-15T05:33:49;1.15;;;1.02;;
62588;SDS011;58504;48.770;9.148;2022-11-15T05:36:18;1.17;;;1.17;;
62588;SDS011;58504;48.770;9.148;2022-11-15T05:38:51;0.70;;;0.70;;
62588;SDS011;58504;48.770;9.148;2022-11-15T05:41:20;0.80;;;0.80;;
62588;SDS011;58504;48.770;9.148;2022-11-15T05:43:52;0.90;;;0.90;;
62588;SDS011;58504;48.770;9.148;2022-11-15T05:46:19;1.20;;;1.20;;
62588;SDS011;58504;48.770;9.148;2022-11-15T05:48:47;1.23;;;1.10;;
62588;SDS011;58504;48.770;9.148;2022-11-15T05:51:17;0.77;;;0.77;;
62588;SDS011;58504;48.770;9.148;2022-11-15T05:53:47;0.70;;;0.70;;
62588;SDS011;58504;48.770;9.148;2022-11-15T05:56:14;0.90;;;0.90;;
62588;SDS011;58504;48.770;9.148;2022-11-15T05:58:41;0.90;;;0.90;;
62588;SDS011;58504;48.770;9.148;2022-11-15T06:01:10;1.20;;;1.10;;
62588;SDS011;58504;48.770;9.148;2022-11-15T06:03:37;1.02;;;0.80;;
62588;SDS011;58504;48.770;9.148;2022-11-15T06:06:04;0.65;;;0.65;;
62588;SDS011;58504;48.770;9.148;2022-11-15T06:08:31;0.82;;;0.82;;
62588;SDS011;58504;48.770;9.148;2022-11-15T06:11:02;0.80;;;0.80;;
62588;SDS011;58504;48.770;9.148;2022-11-15T06:13:29;0.98;;;0.88;;
62588;SDS011;58504;48.770;9.148;2022-11-15T06:15:56;1.05;;;0.90;;
62588;SDS011;58504;48.770;9.148;2022-11-15T06:18:24;0.80;;;0.80;;
62588;SDS011;58504;48.770;9.148;2022-11-15T06:20:51;0.70;;;0.70;;
62588;SDS011;58504;48.770;9.148;2022-11-15T06:23:18;0.90;;;0.90;;
62588;SDS011;58504;48.770;9.148;2022-11-15T06:25:45;1.85;;;0.90;;
62588;SDS011;58504;48.770;9.148;2022-11-15T06:28:12;0.95;;;0.95;;
62588;SDS011;58504;48.770;9.148;2022-11-15T06:30:38;0.88;;;0.80;;
62588;SDS011;58504;48.770;9.148;2022-11-15T06:33:05;2.55;;;0.80;;
62588;SDS011;58504;48.770;9.148;2022-11-15T06:35:35;0.70;;;0.70;;
62588;SDS011;58504;48.770;9.148;2022-11-15T06:38:03;0.90;;;0.90;;
62588;SDS011;58504;48.770;9.148;2022-11-15T06:40:32;0.75;;;0.75;;
62588;SDS011;58504;48.770;9.148;2022-11-15T06:43:00;0.73;;;0.73;;
62588;SDS011;58504;48.770;9.148;2022-11-15T06:45:27;0.70;;;0.70;;
62588;SDS011;58504;48.770;9.148;2022-11-15T06:47:54;2.25;;;0.88;;
62588;SDS011;58504;48.770;9.148;2022-11-15T06:50:20;2.58;;;1.00;;
62588;SDS011;58504;48.770;9.148;2022-11-15T06:52:49;0.90;;;0.90;;
62588;SDS011;58504;48.770;9.148;2022-11-15T06:55:15;0.90;;;0.90;;
62588;SDS011;58504;48.770;9.148;2022-11-15T06:57:48;1.00;;;1.00;;
62588;SDS011;58504;48.770;9.148;2022-11-15T07:00:16;1.10;;;0.95;;
62588;SDS011;58504;48.770;9.148;2022-11-15T07:02:45;0.80;;;0.80;;
62588;SDS011;58504;48.770;9.148;2022-11-15T07:05:12;0.85;;;0.73;;
62588;SDS011;58504;48.770;9.148;2022-11-15T07:07:39;0.88;;;0.88;;
62588;SDS011;58504;48.770;9.148;2022-11-15T07:10:08;2.63;;;1.00;;
62588;SDS011;58504;48.770;9.148;2022-11-15T07:12:35;0.88;;;0.88;;
62588;SDS011;58504;48.770;9.148;2022-11-15T07:15:02;1.45;;;1.05;;
62588;SDS011;58504;48.770;9.148;2022-11-15T07:17:29;0.85;;;0.85;;
62588;SDS011;58504;48.770;9.148;2022-11-15T07:19:56;1.40;;;1.05;;
62588;SDS011;58504;48.770;9.148;2022-11-15T07:22:23;0.93;;;0.80;;
62588;SDS011;58504;48.770;9.148;2022-11-15T07:24:49;1.95;;;0.80;;
62588;SDS011;58504;48.770;9.148;2022-11-15T07:27:17;2.85;;;0.88;;
62588;SDS011;58504;48.770;9.148;2022-11-15T07:29:44;0.77;;;0.77;;
62588;SDS011;58504;48.770;9.148;2022-11-15T07:32:11;0.70;;;0.70;;
62588;SDS011;58504;48.770;9.148;2022-11-15T07:34:38;0.70;;;0.70;;
62588;SDS011;58504;48.770;9.148;2022-11-15T07:37:04;0.90;;;0.90;;
62588;SDS011;58504;48.770;9.148;2022-11-15T07:39:31;1.17;;;1.08;;
62588;SDS011;58504;48.770;9.148;2022-11-15T07:41:58;0.93;;;0.90;;
62588;SDS011;58504;48.770;9.148;2022-11-15T07:44:40;5.80;;;0.95;;
62588;SDS011;58504;48.770;9.148;2022-11-15T07:47:07;0.77;;;0.68;;
62588;SDS011;58504;48.770;9.148;2022-11-15T07:49:34;9.25;;;0.95;;
62588;SDS011;58504;48.770;9.148;2022-11-15T07:52:00;0.90;;;0.90;;
62588;SDS011;58504;48.770;9.148;2022-11-15T07:54:27;2.63;;;0.98;;
62588;SDS011;58504;48.770;9.148;2022-11-15T07:56:54;1.00;;;1.00;;
62588;SDS011;58504;48.770;9.148;2022-11-15T07:59:21;1.33;;;0.95;;
62588;SDS011;58504;48.770;9.148;2022-11-15T08:01:49;3.90;;;0.77;;
62588;SDS011;58504;48.770;9.148;2022-11-15T08:04:16;2.35;;;0.90;;
62588;SDS011;58504;48.770;9.148;2022-11-15T08:06:42;0.90;;;0.88;;
62588;SDS011;58504;48.770;9.148;2022-11-15T08:09:09;0.73;;;0.73;;
62588;SDS011;58504;48.770;9.148;2022-11-15T08:11:36;1.10;;;1.00;;
62588;SDS011;58504;48.770;9.148;2022-11-15T08:14:03;1.00;;;0.88;;
62588;SDS011;58504;48.770;9.148;2022-11-15T08:16:29;0.88;;;0.82;;
62588;SDS011;58504;48.770;9.148;2022-11-15T08:18:58;0.95;;;0.95;;
62588;SDS011;58504;48.770;9.148;2022-11-15T08:21:25;0.68;;;0.68;;
62588;SDS011;58504;48.770;9.148;2022-11-15T08:23:52;2.90;;;0.80;;
62588;SDS011;58504;48.770;9.148;2022-11-15T08:26:18;1.05;;;0.70;;
62588;SDS011;58504;48.770;9.148;2022-11-15T08:28:45;3.00;;;0.90;;
62588;SDS011;58504;48.770;9.148;2022-11-15T08:31:13;0.73;;;0.73;;
62588;SDS011;58504;48.770;9.148;2022-11-15T08:33:41;1.95;;;1.30;;
62588;SDS011;58504;48.770;9.148;2022-11-15T08:36:11;0.90;;;0.90;;
62588;SDS011;58504;48.770;9.148;2022-11-15T08:38:40;1.33;;;1.10;;
62588;SDS011;58504;48.770;9.148;2022-11-15T08:41:09;0.88;;;0.88;;
62588;SDS011;58504;48.770;9.148;2022-11-15T08:43:42;0.60;;;0.60;;
62588;SDS011;58504;48.770;9.148;2022-11-15T08:46:10;1.98;;;0.90;;
62588;SDS011;58504;48.770;9.148;2022-11-15T08:48:38;1.67;;;0.70;;
62588;SDS011;58504;48.770;9.148;2022-11-15T08:51:05;2.72;;;1.08;;
62588;SDS011;58504;48.770;9.148;2022-11-15T08:53:34;1.08;;;0.90;;
62588;SDS011;58504;48.770;9.148;2022-11-15T08:56:01;0.77;;;0.77;;
62588;SDS011;58504;48.770;9.148;2022-11-15T08:58:28;0.70;;;0.70;;
62588;SDS011;58504;48.770;9.148;2022-11-15T09:00:55;1.42;;;0.90;;
62588;SDS011;58504;48.770;9.148;2022-11-15T09:03:21;0.70;;;0.70;;
62588;SDS011;58504;48.770;9.148;2022-11-15T09:05:48;0.90;;;0.90;;
62588;SDS011;58504;48.770;9.148;2022-11-15T09:08:19;1.00;;;0.88;;
62588;SDS011;58504;48.770;9.148;2022-11-15T09:10:47;1.38;;;1.08;;
62588;SDS011;58504;48.770;9.148;2022-11-15T09:13:14;0.95;;;0.85;;
62588;SDS011;58504;48.770;9.148;2022-11-15T09:15:41;3.70;;;0.80;;
62588;SDS011;58504;48.770;9.148;2022-11-15T09:18:08;0.98;;;0.98;;
62588;SDS011;58504;48.770;9.148;2022-11-15T09:20:35;0.77;;;0.77;;
62588;SDS011;58504;48.770;9.148;2022-11-15T09:23:01;2.45;;;0.85;;
62588;SDS011;58504;48.770;9.148;2022-11-15T09:25:29;2.17;;;1.00;;
62588;SDS011;58504;48.770;9.148;2022-11-15T09:27:58;1.48;;;1.15;;
62588;SDS011;58504;48.770;9.148;2022-11-15T09:30:25;0.80;;;0.80;;
62588;SDS011;58504;48.770;9.148;2022-11-15T09:32:51;2.15;;;1.00;;
62588;SDS011;58504;48.770;9.148;2022-11-15T09:35:18;0.70;;;0.70;;
62588;SDS011;58504;48.770;9.148;2022-11-15T09:37:45;1.02;;;0.75;;
62588;SDS011;58504;48.770;9.148;2022-11-15T09:40:12;1.15;;;0.90;;
62588;SDS011;58504;48.770;9.148;2022-11-15T09:42:47;1.33;;;0.90;;
62588;SDS011;58504;48.770;9.148;2022-11-15T09:45:28;0.85;;;0.80;;
62588;SDS011;58504;48.770;9.148;2022-11-15T09:48:04;1.70;;;0.90;;
62588;SDS011;58504;48.770;9.148;2022-11-15T09:51:00;0.68;;;0.68;;
62588;SDS011;58504;48.770;9.148;2022-11-15T09:53:31;1.40;;;0.90;;
62588;SDS011;58504;48.770;9.148;2022-11-15T09:56:03;0.70;;;0.70;;
62588;SDS011;58504;48.770;9.148;2022-11-15T09:58:42;0.70;;;0.70;;
62588;SDS011;58504;48.770;9.148;2022-11-15T10:01:19;0.70;;;0.70;;
62588;SDS011;58504;48.770;9.148;2022-11-15T10:03:55;0.60;;;0.60;;
62588;SDS011;58504;48.770;9.148;2022-11-15T10:06:24;1.00;;;0.90;;
62588;SDS011;58504;48.770;9.148;2022-11-15T10:08:54;0.75;;;0.75;;
62588;SDS011;58504;48.770;9.148;2022-11-15T10:11:25;1.52;;;1.08;;
62588;SDS011;58504;48.770;9.148;2022-11-15T10:13:55;1.00;;;1.00;;
62588;SDS011;58504;48.770;9.148;2022-11-15T10:16:41;2.67;;;0.73;;
62588;SDS011;58504;48.770;9.148;2022-11-15T10:19:28;0.80;;;0.80;;
62588;SDS011;58504;48.770;9.148;2022-11-15T10:22:03;0.77;;;0.77;;
62588;SDS011;58504;48.770;9.148;2022-11-15T10:24:43;0.60;;;0.60;;
62588;SDS011;58504;48.770;9.148;2022-11-15T10:27:12;0.85;;;0.85;;
62588;SDS011;58504;48.770;9.148;2022-11-15T10:29:43;0.75;;;0.75;;
62588;SDS011;58504;48.770;9.148;2022-11-15T10:32:12;0.80;;;0.80;;
62588;SDS011;58504;48.770;9.148;2022-11-15T10:34:42;0.90;;;0.90;;
62588;SDS011;58504;48.770;9.148;2022-11-15T10:37:08;0.57;;;0.57;;
62588;SDS011;58504;48.770;9.148;2022-11-15T10:39:35;0.60;;;0.60;;
62588;SDS011;58504;48.770;9.148;2022-11-15T10:44:51;0.88;;;0.73;;
62588;SDS011;58504;48.770;9.148;2022-11-15T10:49:57;0.73;;;0.73;;
62588;SDS011;58504;48.770;9.148;2022-11-15T10:52:25;1.00;;;1.00;;
62588;SDS011;58504;48.770;9.148;2022-11-15T10:54:54;0.70;;;0.70;;
62588;SDS011;58504;48.770;9.148;2022-11-15T10:57:26;1.52;;;0.80;;
62588;SDS011;58504;48.770;9.148;2022-11-15T10:59:56;0.95;;;0.95;;
62588;SDS011;58504;48.770;9.148;2022-11-15T11:02:27;0.57;;;0.57;;
62588;SDS011;58504;48.770;9.148;2022-11-15T11:04:58;0.80;;;0.80;;
62588;SDS011;58504;48.770;9.148;2022-11-15T11:07:26;0.60;;;0.60;;
62588;SDS011;58504;48.770;9.148;2022-11-15T11:09:58;0.70;;;0.70;;
62588;SDS011;58504;48.770;9.148;2022-11-15T11:12:31;0.70;;;0.70;;
62588;SDS011;58504;48.770;9.148;2022-11-15T11:15:00;0.75;;;0.75;;
62588;SDS011;58504;48.770;9.148;2022-11-15T11:17:41;0.70;;;0.70;;
62588;SDS011;58504;48.770;9.148;2022-11-15T11:20:20;1.30;;;0.82;;
62588;SDS011;58504;48.770;9.148;2022-11-15T11:22:57;2.08;;;0.82;;
62588;SDS011;58504;48.770;9.148;2022-11-15T11:25:40;0.65;;;0.65;;
62588;SDS011;58504;48.770;9.148;2022-11-15T11:28:14;0.90;;;0.90;;
62588;SDS011;58504;48.770;9.148;2022-11-15T11:30:58;0.70;;;0.70;;
62588;SDS011;58504;48.770;9.148;2022-11-15T11:33:42;0.90;;;0.90;;
62588;SDS011;58504;48.770;9.148;2022-11-15T11:36:17;0.60;;;0.60;;
62588;SDS011;58504;48.770;9.148;2022-11-15T11:38:51;0.90;;;0.90;;
62588;SDS011;58504;48.770;9.148;2022-11-15T11:41:29;0.68;;;0.68;;
62588;SDS011;58504;48.770;9.148;2022-11-15T11:44:11;0.80;;;0.80;;
62588;SDS011;58504;48.770;9.148;2022-11-15T11:46:52;0.50;;;0.50;;
62588;SDS011;58504;48.770;9.148;2022-11-15T11:49:25;0.77;;;0.77;;
62588;SDS011;58504;48.770;9.148;2022-11-15T11:52:00;0.80;;;0.80;;
62588;SDS011;58504;48.770;9.148;2022-11-15T11:54:40;0.90;;;0.90;;
62588;SDS011;58504;48.770;9.148;2022-11-15T11:57:15;0.70;;;0.70;;
62588;SDS011;58504;48.770;9.148;2022-11-15T11:59:49;0.88;;;0.85;;
62588;SDS011;58504;48.770;9.148;2022-11-15T12:02:28;0.70;;;0.70;;
62588;SDS011;58504;48.770;9.148;2022-11-15T12:05:03;0.63;;;0.63;;
62588;SDS011;58504;48.770;9.148;2022-11-15T12:07:35;0.70;;;0.70;;
62588;SDS011;58504;48.770;9.148;2022-11-15T12:10:11;0.85;;;0.85;;
62588;SDS011;58504;48.770;9.148;2022-11-15T12:12:44;0.70;;;0.70;;
62588;SDS011;58504;48.770;9.148;2022-11-15T12:15:17;0.73;;;0.73;;
62588;SDS011;58504;48.770;9.148;2022-11-15T12:17:48;0.90;;;0.80;;
62588;SDS011;58504;48.770;9.148;2022-11-15T12:20:17;0.80;;;0.80;;
62588;SDS011;58504;48.770;9.148;2022-11-15T12:22:47;0.70;;;0.70;;
62588;SDS011;58504;48.770;9.148;2022-11-15T12:25:20;0.82;;;0.68;;
62588;SDS011;58504;48.770;9.148;2022-11-15T12:27:50;1.20;;;0.77;;
62588;SDS011;58504;48.770;9.148;2022-11-15T12:30:21;0.80;;;0.80;;
62588;SDS011;58504;48.770;9.148;2022-11-15T12:32:51;1.17;;;0.73;;
62588;SDS011;58504;48.770;9.148;2022-11-15T12:35:25;0.95;;;0.90;;
62588;SDS011;58504;48.770;9.148;2022-11-15T12:37:55;0.60;;;0.60;;
62588;SDS011;58504;48.770;9.148;2022-11-15T12:40:27;2.58;;;0.90;;
62588;SDS011;58504;48.770;9.148;2022-11-15T12:42:57;0.75;;;0.75;;
62588;SDS011;58504;48.770;9.148;2022-11-15T12:45:27;0.63;;;0.63;;
62588;SDS011;58504;48.770;9.148;2022-11-15T12:47:56;0.80;;;0.80;;
62588;SDS011;58504;48.770;9.148;2022-11-15T12:50:58;0.77;;;0.77;;
62588;SDS011;58504;48.770;9.148;2022-11-15T12:53:26;0.85;;;0.85;;
62588;SDS011;58504;48.770;9.148;2022-11-15T12:56:08;0.60;;;0.60;;
62588;SDS011;58504;48.770;9.148;2022-11-15T12:58:47;0.80;;;0.80;;
62588;SDS011;58504;48.770;9.148;2022-11-15T13:04:23;0.75;;;0.75;;
62588;SDS011;58504;48.770;9.148;2022-11-15T13:06:58;0.63;;;0.63;;
62588;SDS011;58504;48.770;9.148;2022-11-15T13:15:38;0.77;;;0.77;;
62588;SDS011;58504;48.770;9.148;2022-11-15T13:18:28;0.90;;;0.90;;
62588;SDS011;58504;48.770;9.148;2022-11-15T13:21:00;0.65;;;0.65;;
62588;SDS011;58504;48.770;9.148;2022-11-15T13:23:53;0.80;;;0.73;;
62588;SDS011;58504;48.770;9.148;2022-11-15T13:26:21;0.70;;;0.70;;
62588;SDS011;58504;48.770;9.148;2022-11-15T13:28:49;1.23;;;1.13;;
62588;SDS011;58504;48.770;9.148;2022-11-15T13:31:24;1.15;;;0.88;;
62588;SDS011;58504;48.770;9.148;2022-11-15T13:33:57;0.60;;;0.60;;
62588;SDS011;58504;48.770;9.148;2022-11-15T13:36:28;0.90;;;0.90;;
62588;SDS011;58504;48.770;9.148;2022-11-15T13:39:00;0.80;;;0.80;;
62588;SDS011;58504;48.770;9.148;2022-11-15T13:41:30;0.95;;;0.90;;
62588;SDS011;58504;48.770;9.148;2022-11-15T13:43:58;0.60;;;0.60;;
62588;SDS011;58504;48.770;9.148;2022-11-15T13:46:26;1.23;;;1.08;;
62588;SDS011;58504;48.770;9.148;2022-11-15T13:48:55;0.77;;;0.77;;
62588;SDS011;58504;48.770;9.148;2022-11-15T13:51:28;0.60;;;0.60;;
62588;SDS011;58504;48.770;9.148;2022-11-15T13:54:01;0.63;;;0.63;;
62588;SDS011;58504;48.770;9.148;2022-11-15T13:56:34;0.50;;;0.50;;
62588;SDS011;58504;48.770;9.148;2022-11-15T13:59:07;0.75;;;0.75;;
62588;SDS011;58504;48.770;9.148;2022-11-15T14:01:35;0.88;;;0.77;;
62588;SDS011;58504;48.770;9.148;2022-11-15T14:04:02;0.55;;;0.55;;
62588;SDS011;58504;48.770;9.148;2022-11-15T14:06:29;0.70;;;0.70;;
62588;SDS011;58504;48.770;9.148;2022-11-15T14:08:58;0.70;;;0.70;;
62588;SDS011;58504;48.770;9.148;2022-11-15T14:11:48;0.50;;;0.50;;
62588;SDS011;58504;48.770;9.148;2022-11-15T14:14:16;0.50;;;0.50;;
62588;SDS011;58504;48.770;9.148;2022-11-15T14:16:47;0.75;;;0.75;;
62588;SDS011;58504;48.770;9.148;2022-11-15T14:19:36;0.68;;;0.68;;
62588;SDS011;58504;48.770;9.148;2022-11-15T14:22:13;0.57;;;0.57;;
62588;SDS011;58504;48.770;9.148;2022-11-15T14:24:43;0.50;;;0.50;;
62588;SDS011;58504;48.770;9.148;2022-11-15T14:27:19;0.80;;;0.80;;
62588;SDS011;58504;48.770;9.148;2022-11-15T14:29:48;0.80;;;0.80;;
62588;SDS011;58504;48.770;9.148;2022-11-15T14:32:16;0.70;;;0.70;;
62588;SDS011;58504;48.770;9.148;2022-11-15T14:34:44;0.70;;;0.70;;
62588;SDS011;58504;48.770;9.148;2022-11-15T14:37:16;0.52;;;0.52;;
62588;SDS011;58504;48.770;9.148;2022-11-15T14:39:48;0.60;;;0.60;;
62588;SDS011;58504;48.770;9.148;2022-11-15T14:42:15;0.50;;;0.50;;
62588;SDS011;58504;48.770;9.148;2022-11-15T14:44:42;0.80;;;0.80;;
62588;SDS011;58504;48.770;9.148;2022-11-15T14:47:09;0.60;;;0.60;;
62588;SDS011;58504;48.770;9.148;2022-11-15T14:49:36;1.00;;;0.68;;
62588;SDS011;58504;48.770;9.148;2022-11-15T14:52:04;0.70;;;0.70;;
62588;SDS011;58504;48.770;9.148;2022-11-15T14:54:38;1.95;;;0.90;;
62588;SDS011;58504;48.770;9.148;2022-11-15T14:57:06;0.65;;;0.65;;
62588;SDS011;58504;48.770;9.148;2022-11-15T14:59:33;0.60;;;0.60;;
62588;SDS011;58504;48.770;9.148;2022-11-15T15:01:59;0.68;;;0.60;;
62588;SDS011;58504;48.770;9.148;2022-11-15T15:04:26;0.73;;;0.73;;
62588;SDS011;58504;48.770;9.148;2022-11-15T15:06:53;0.70;;;0.70;;
62588;SDS011;58504;48.770;9.148;2022-11-15T15:09:20;0.82;;;0.82;;
62588;SDS011;58504;48.770;9.148;2022-11-15T15:11:46;0.80;;;0.80;;
62588;SDS011;58504;48.770;9.148;2022-11-15T15:14:15;0.57;;;0.57;;
62588;SDS011;58504;48.770;9.148;2022-11-15T15:16:41;0.60;;;0.60;;
62588;SDS011;58504;48.770;9.148;2022-11-15T15:19:08;0.82;;;0.70;;
62588;SDS011;58504;48.770;9.148;2022-11-15T15:21:35;0.60;;;0.60;;
62588;SDS011;58504;48.770;9.148;2022-11-15T15:24:02;0.85;;;0.85;;
62588;SDS011;58504;48.770;9.148;2022-11-15T15:26:29;0.60;;;0.60;;
62588;SDS011;58504;48.770;9.148;2022-11-15T15:28:58;0.70;;;0.70;;
62588;SDS011;58504;48.770;9.148;2022-11-15T15:31:26;0.90;;;0.80;;